Time;durP1;ratioP1;P1;durP2;ratioP2;P2;SDS_P1;SDS_P2;PMS_P1;PMS_P2;Temp;Humidity;BMP_temperature;BMP_pressure;BME280_temperature;BME280_humidity;BME280_pressure;Samples;Min_cycle;Max_cycle;Signal;HPM_P1;HPM_P2
2021/12/08 00:00:17;;;;;;;34.05;15.43;;;;;;;0.80;100.00;96788.66;5043572;28;20045;-82
2021/12/08 00:02:44;;;;;;;36.30;15.52;;;;;;;0.83;100.00;96780.09;5025094;28;20187;-83
2021/12/08 00:05:14;;;;;;;37.97;15.30;;;;;;;0.83;100.00;96762.25;5040477;28;20076;-82
2021/12/08 00:07:41;;;;;;;40.65;16.05;;;;;;;0.76;100.00;96769.75;5047844;28;20064;-83
2021/12/08 00:13:09;;;;;;;39.10;16.70;;;;;;;0.85;100.00;96751.34;5057006;28;20111;-84
2021/12/08 00:15:45;;;;;;;34.55;15.75;;;;;;;0.79;100.00;96749.75;5056795;28;20050;-85
2021/12/08 00:18:15;;;;;;;39.00;16.70;;;;;;;0.84;100.00;96745.22;5026852;28;20111;-83
2021/12/08 00:20:45;;;;;;;40.78;17.13;;;;;;;0.88;100.00;96735.59;5020451;28;20057;-83
2021/12/08 00:23:14;;;;;;;36.40;16.33;;;;;;;0.87;100.00;96719.88;5037958;28;20088;-83
2021/12/08 00:25:42;;;;;;;38.53;16.65;;;;;;;0.91;100.00;96724.38;5036287;28;20049;-82
2021/12/08 00:28:09;;;;;;;40.58;16.23;;;;;;;0.96;100.00;96715.56;5019112;28;20131;-83
2021/12/08 00:30:38;;;;;;;40.90;16.60;;;;;;;1.00;100.00;96703.28;5020001;28;20049;-83
2021/12/08 00:33:05;;;;;;;36.33;15.88;;;;;;;0.98;100.00;96703.56;5021003;28;20080;-83
2021/12/08 00:35:33;;;;;;;42.42;16.15;;;;;;;1.01;100.00;96696.88;5036635;28;20060;-83
2021/12/08 00:38:00;;;;;;;39.47;16.02;;;;;;;1.06;100.00;96699.50;5036501;28;20132;-83
2021/12/08 00:40:28;;;;;;;38.47;16.13;;;;;;;0.98;100.00;96686.78;5037506;28;20450;-83
2021/12/08 00:42:55;;;;;;;43.25;16.92;;;;;;;1.01;100.00;96684.34;5037214;28;20084;-83
2021/12/08 00:45:23;;;;;;;36.45;16.15;;;;;;;0.94;100.00;96675.06;5038293;28;20050;-82
2021/12/08 00:47:51;;;;;;;38.63;15.80;;;;;;;1.03;100.00;96679.53;5040199;28;20061;-83
2021/12/08 00:50:20;;;;;;;43.83;15.65;;;;;;;1.12;100.00;96679.75;5038165;28;20053;-80
2021/12/08 00:52:46;;;;;;;36.03;15.15;;;;;;;1.13;100.00;96676.81;5039656;28;20050;-81
2021/12/08 00:55:15;;;;;;;39.70;16.02;;;;;;;1.13;100.00;96673.34;5038731;28;20061;-82
2021/12/08 00:57:42;;;;;;;39.47;15.13;;;;;;;1.07;100.00;96669.94;5037937;28;20076;-83
2021/12/08 01:00:14;;;;;;;37.63;16.08;;;;;;;1.05;100.00;96657.97;5046282;28;20041;-84
2021/12/08 01:02:41;;;;;;;42.72;16.23;;;;;;;1.01;100.00;96647.03;5040754;28;20090;-82
2021/12/08 01:05:17;;;;;;;38.92;15.80;;;;;;;1.00;100.00;96644.66;5041744;28;20079;-83
2021/12/08 01:07:47;;;;;;;34.90;14.77;;;;;;;1.04;100.00;96637.69;5031494;28;20050;-83
2021/12/08 01:10:21;;;;;;;40.70;15.48;;;;;;;0.90;100.00;96610.91;5027843;28;20062;-83
2021/12/08 01:13:08;;;;;;;40.00;15.63;;;;;;;0.86;100.00;96625.84;5045242;28;20053;-82
2021/12/08 01:15:44;;;;;;;39.97;14.93;;;;;;;0.86;100.00;96601.06;5048388;28;20049;-83
2021/12/08 01:18:23;;;;;;;36.55;14.57;;;;;;;0.93;100.00;96594.34;5033228;28;20053;-83
2021/12/08 01:20:52;;;;;;;35.67;14.82;;;;;;;1.06;100.00;96607.03;5048980;28;20045;-84
2021/12/08 01:23:25;;;;;;;39.80;15.25;;;;;;;0.90;100.00;96578.94;5048685;28;20041;-82
2021/12/08 01:25:56;;;;;;;41.13;14.40;;;;;;;0.84;100.00;96576.59;5049266;28;20040;-82
2021/12/08 01:28:26;;;;;;;39.65;14.25;;;;;;;0.93;100.00;96574.94;5053278;28;20041;-82
2021/12/08 01:31:05;;;;;;;35.10;13.98;;;;;;;1.08;100.00;96591.59;5047628;28;20053;-83
2021/12/08 01:33:35;;;;;;;31.75;13.00;;;;;;;1.08;100.00;96572.13;5048312;28;20416;-84
2021/12/08 01:36:05;;;;;;;33.13;12.80;;;;;;;1.03;100.00;96564.19;5027894;28;20060;-81
2021/12/08 01:38:36;;;;;;;30.92;12.57;;;;;;;1.04;100.00;96573.75;5044553;28;20053;-82
2021/12/08 01:41:03;;;;;;;31.35;12.05;;;;;;;1.08;100.00;96559.63;5040820;28;20309;-83
2021/12/08 01:43:41;;;;;;;32.47;12.38;;;;;;;1.10;100.00;96559.31;5023773;28;20053;-82
2021/12/08 01:46:11;;;;;;;30.23;12.50;;;;;;;1.17;100.00;96555.25;5040840;28;20055;-83
2021/12/08 01:48:41;;;;;;;30.27;10.95;;;;;;;1.21;100.00;96550.16;5039811;28;20064;-83
2021/12/08 01:51:11;;;;;;;32.72;12.48;;;;;;;1.21;100.00;96547.50;5037527;28;20509;-83
2021/12/08 01:53:44;;;;;;;26.35;11.20;;;;;;;1.21;100.00;96545.59;5037455;28;20057;-82
2021/12/08 01:56:23;;;;;;;33.00;11.57;;;;;;;1.20;100.00;96551.22;5021211;28;20056;-83
2021/12/08 01:58:52;;;;;;;32.63;11.15;;;;;;;1.20;100.00;96532.56;5036280;28;20061;-82
2021/12/08 02:01:21;;;;;;;23.52;9.93;;;;;;;1.25;100.00;96530.66;5019505;28;20050;-82
2021/12/08 02:03:49;;;;;;;28.15;10.15;;;;;;;1.27;100.00;96501.84;5036537;28;20111;-84
2021/12/08 02:06:18;;;;;;;27.67;10.10;;;;;;;1.24;100.00;96491.75;5037304;28;20056;-83
2021/12/08 02:08:51;;;;;;;22.92;8.98;;;;;;;1.35;100.00;96486.28;5020205;28;20103;-83
2021/12/08 02:11:20;;;;;;;26.85;9.27;;;;;;;1.27;100.00;96472.53;5021258;28;20055;-83
2021/12/08 02:13:51;;;;;;;24.02;9.10;;;;;;;1.34;100.00;96453.53;5020808;28;20053;-83
2021/12/08 02:16:18;;;;;;;21.02;8.45;;;;;;;1.32;100.00;96454.91;5039143;28;20049;-82
2021/12/08 02:18:49;;;;;;;20.00;8.35;;;;;;;1.39;100.00;96448.13;5038272;28;20053;-82
2021/12/08 02:21:35;;;;;;;23.08;8.65;;;;;;;1.38;100.00;96451.88;5044361;28;20060;-82
2021/12/08 02:24:06;;;;;;;23.25;8.85;;;;;;;1.38;100.00;96451.88;5045103;28;20084;-83
2021/12/08 02:26:50;;;;;;;21.27;8.55;;;;;;;1.38;100.00;96445.75;5046036;28;20111;-83
2021/12/08 02:29:42;;;;;;;24.67;8.95;;;;;;;1.38;100.00;96454.53;5051410;28;20120;-80
2021/12/08 02:32:29;;;;;;;21.70;9.00;;;;;;;1.32;100.00;96439.66;5030203;28;20080;-82
2021/12/08 02:48:52;;;;;;;28.30;10.20;;;;;;;1.35;100.00;96433.78;5037967;28;20042;-82
2021/12/08 02:51:20;;;;;;;25.20;10.30;;;;;;;1.37;100.00;96430.84;5019409;28;20049;-82
2021/12/08 02:53:47;;;;;;;26.90;10.45;;;;;;;1.32;100.00;96436.22;5038159;28;20049;-82
2021/12/08 02:56:17;;;;;;;30.38;11.52;;;;;;;1.32;100.00;96442.34;5036519;28;20060;-80
2021/12/08 02:58:45;;;;;;;27.95;10.27;;;;;;;1.29;100.00;96420.81;5035133;28;20053;-80
2021/12/08 03:01:12;;;;;;;28.90;10.93;;;;;;;1.31;100.00;96414.13;5040696;28;20057;-81
2021/12/08 03:03:39;;;;;;;32.22;11.10;;;;;;;1.30;100.00;96411.72;5019123;28;20513;-81
2021/12/08 03:06:06;;;;;;;31.50;11.23;;;;;;;1.29;100.00;96394.16;5018341;28;20056;-80
2021/12/08 03:08:33;;;;;;;29.45;10.82;;;;;;;1.24;100.00;96405.66;5017463;28;20046;-80
2021/12/08 03:11:00;;;;;;;28.42;10.65;;;;;;;1.24;100.00;96408.31;5016070;28;20050;-81
2021/12/08 03:13:33;;;;;;;27.02;10.48;;;;;;;1.24;100.00;96421.63;5017631;28;20429;-82
2021/12/08 03:16:01;;;;;;;26.55;10.68;;;;;;;1.24;100.00;96429.63;5016497;28;20053;-81
2021/12/08 03:18:33;;;;;;;25.52;9.63;;;;;;;1.27;100.00;96435.19;5016094;28;20072;-81
2021/12/08 03:21:02;;;;;;;26.15;10.07;;;;;;;1.28;100.00;96425.34;4998701;28;20077;-80
2021/12/08 03:23:37;;;;;;;25.15;9.57;;;;;;;1.25;100.00;96432.03;5015450;28;20147;-82
2021/12/08 03:26:06;;;;;;;19.15;7.25;;;;;;;1.11;100.00;96420.47;4999311;28;20050;-81
2021/12/08 03:28:38;;;;;;;31.13;10.40;;;;;;;1.13;100.00;96426.31;5015768;28;20407;-82
2021/12/08 03:31:09;;;;;;;27.23;9.27;;;;;;;1.14;100.00;96422.56;5021166;28;20045;-81
2021/12/08 03:33:36;;;;;;;24.05;8.77;;;;;;;1.14;100.00;96422.56;5036407;28;20049;-82
2021/12/08 03:36:04;;;;;;;20.85;8.43;;;;;;;1.10;100.00;96416.22;5035716;28;20441;-82
2021/12/08 03:38:31;;;;;;;15.57;6.43;;;;;;;1.33;100.00;96405.81;5036910;28;20079;-80
2021/12/08 03:41:00;;;;;;;22.17;7.55;;;;;;;1.40;100.00;96400.91;5037484;28;20153;-81
2021/12/08 03:43:27;;;;;;;20.30;7.32;;;;;;;1.43;100.00;96405.69;5031421;28;20057;-82
2021/12/08 03:45:56;;;;;;;17.55;7.20;;;;;;;1.41;100.00;96384.66;5035535;28;20104;-82
2021/12/08 03:48:39;;;;;;;17.92;7.53;;;;;;;1.52;100.00;96391.44;5041572;28;20513;-82
2021/12/08 03:51:19;;;;;;;18.80;7.00;;;;;;;1.46;100.00;96378.47;5043842;28;20053;-82
2021/12/08 03:54:00;;;;;;;20.98;7.75;;;;;;;1.44;100.00;96385.97;5040981;28;20113;-81
2021/12/08 03:56:41;;;;;;;21.05;8.02;;;;;;;1.40;100.00;96383.06;5039077;28;20050;-82
2021/12/08 03:59:09;;;;;;;24.40;8.80;;;;;;;1.45;100.00;96392.84;5033785;28;20057;-82
2021/12/08 04:01:36;;;;;;;22.33;8.52;;;;;;;1.37;100.00;96393.53;5036108;28;20399;-81
2021/12/08 04:04:07;;;;;;;21.70;8.95;;;;;;;1.40;100.00;96401.72;5035104;28;20121;-80
2021/12/08 04:06:57;;;;;;;21.65;9.02;;;;;;;1.36;100.00;96398.06;5034907;28;20390;-82
2021/12/08 04:09:33;;;;;;;27.38;9.93;;;;;;;1.35;100.00;96387.66;5034642;28;20052;-82
2021/12/08 04:12:02;;;;;;;23.90;9.77;;;;;;;1.36;100.00;96400.72;5035217;28;20107;-82
2021/12/08 04:14:33;;;;;;;25.83;10.50;;;;;;;1.27;100.00;96403.22;5034886;28;20045;-82
2021/12/08 04:17:16;;;;;;;28.23;11.18;;;;;;;1.32;100.00;96405.03;5052127;28;20527;-82
2021/12/08 04:19:45;;;;;;;23.85;10.13;;;;;;;1.24;100.00;96410.97;5047442;28;20042;-81
2021/12/08 04:22:24;;;;;;;26.23;10.13;;;;;;;1.25;100.00;96408.03;5044005;28;20107;-82
2021/12/08 04:25:17;;;;;;;25.52;9.95;;;;;;;1.29;100.00;96408.28;5059658;28;20513;-81
2021/12/08 04:27:56;;;;;;;26.75;10.30;;;;;;;1.37;100.00;96401.53;5044027;28;20072;-81
2021/12/08 04:30:33;;;;;;;27.48;10.63;;;;;;;1.34;100.00;96391.44;5044522;28;20048;-81
2021/12/08 04:33:08;;;;;;;25.63;9.30;;;;;;;1.34;100.00;96394.09;5061723;28;20077;-81
2021/12/08 04:35:47;;;;;;;26.10;9.82;;;;;;;1.32;100.00;96391.69;5049588;28;20104;-81
2021/12/08 04:38:27;;;;;;;29.70;9.95;;;;;;;1.29;100.00;96402.16;5034678;28;20482;-82
2021/12/08 04:41:09;;;;;;;25.73;9.63;;;;;;;1.31;100.00;96402.66;5047127;28;20069;-81
2021/12/08 04:43:50;;;;;;;21.42;8.40;;;;;;;1.45;100.00;96403.53;5028419;28;20060;-81
2021/12/08 04:52:23;;;;;;;18.10;7.97;;;;;;;1.55;100.00;96425.50;5043446;28;20046;-81
2021/12/08 05:03:24;;;;;;;22.92;9.00;;;;;;;1.56;100.00;96428.97;5029359;28;20108;-81
2021/12/08 05:06:07;;;;;;;;;;;;;;;1.54;100.00;96441.81;5039059;28;20457;-81
2021/12/08 05:08:41;;;;;;;26.80;8.73;;;;;;;1.58;100.00;96419.63;5038926;28;19927;-81
2021/12/08 05:11:16;;;;;;;23.25;9.02;;;;;;;1.63;100.00;96432.06;5018983;28;20053;-82
2021/12/08 05:13:46;;;;;;;22.48;8.55;;;;;;;1.70;100.00;96425.31;5035318;28;20049;-81
2021/12/08 05:16:14;;;;;;;23.27;8.85;;;;;;;1.79;100.00;96428.94;5022524;28;20076;-82
2021/12/08 05:18:48;;;;;;;21.02;9.10;;;;;;;1.74;100.00;96412.19;5019382;28;20527;-83
2021/12/08 05:21:21;;;;;;;23.08;9.15;;;;;;;1.85;100.00;96422.44;5035945;28;20049;-83
2021/12/08 05:23:51;;;;;;;21.77;8.73;;;;;;;1.93;100.00;96413.00;5019822;28;20115;-82
2021/12/08 05:26:32;;;;;;;22.15;8.35;;;;;;;1.94;100.00;96411.91;5019437;28;20727;-83
2021/12/08 05:29:05;;;;;;;20.75;8.75;;;;;;;1.87;100.00;96406.94;5017898;28;20041;-81
2021/12/08 05:31:32;;;;;;;20.45;8.95;;;;;;;1.97;100.00;96406.00;5038434;28;20135;-83
2021/12/08 05:34:04;;;;;;;21.17;8.82;;;;;;;2.01;100.00;96404.34;5036042;28;20050;-81
2021/12/08 05:36:31;;;;;;;25.63;9.88;;;;;;;2.03;100.00;96406.72;5018353;28;20421;-80
2021/12/08 05:39:01;;;;;;;20.67;9.10;;;;;;;2.01;100.00;96399.00;5019863;28;20053;-80
2021/12/08 05:41:33;;;;;;;25.50;9.57;;;;;;;1.85;100.00;96402.97;5035189;28;20099;-81
2021/12/08 05:44:01;;;;;;;24.90;9.15;;;;;;;1.95;100.00;96413.50;5034927;28;20085;-81
2021/12/08 05:46:30;;;;;;;27.45;9.50;;;;;;;1.92;100.00;96408.75;5020485;28;20049;-82
2021/12/08 05:49:01;;;;;;;26.65;9.60;;;;;;;1.96;100.00;96407.09;5047593;28;20495;-81
2021/12/08 05:51:33;;;;;;;22.50;10.88;;;;;;;2.01;100.00;96419.56;5022300;28;20054;-81
2021/12/08 05:54:14;;;;;;;24.38;10.00;;;;;;;1.96;100.00;96411.63;5035575;28;20069;-81
2021/12/08 05:56:45;;;;;;;24.35;10.43;;;;;;;1.88;100.00;96402.41;5040910;28;20049;-81
2021/12/08 05:59:17;;;;;;;22.70;9.25;;;;;;;1.90;100.00;96410.91;5041694;28;20049;-80
2021/12/08 06:01:51;;;;;;;24.42;9.68;;;;;;;1.96;100.00;96414.28;5021486;28;20072;-81
2021/12/08 06:04:24;;;;;;;22.48;9.73;;;;;;;1.90;100.00;96418.91;5040520;28;20084;-81
2021/12/08 06:06:52;;;;;;;26.27;10.50;;;;;;;1.95;100.00;96410.03;5020887;28;20053;-81
2021/12/08 06:09:21;;;;;;;24.73;9.50;;;;;;;1.92;100.00;96421.28;5036187;28;20045;-80
2021/12/08 06:11:49;;;;;;;25.35;10.00;;;;;;;1.98;100.00;96420.13;5039162;28;20423;-81
2021/12/08 06:14:19;;;;;;;27.27;9.95;;;;;;;1.99;100.00;96427.84;5032762;28;20080;-80
2021/12/08 06:16:48;;;;;;;27.75;10.18;;;;;;;1.92;100.00;96431.94;5019326;28;20053;-81
2021/12/08 06:19:16;;;;;;;25.95;10.52;;;;;;;1.87;100.00;96428.28;5021743;28;20087;-81
2021/12/08 06:21:43;;;;;;;27.23;10.07;;;;;;;1.88;100.00;96426.41;5036095;28;20057;-81
2021/12/08 06:24:20;;;;;;;26.90;11.73;;;;;;;1.85;100.00;96427.00;5036076;28;20075;-81
2021/12/08 06:26:47;;;;;;;23.33;10.10;;;;;;;1.92;100.00;96430.06;5041890;28;20056;-81
2021/12/08 06:29:17;;;;;;;24.38;10.00;;;;;;;1.89;100.00;96441.31;5041520;28;20050;-81
2021/12/08 06:31:47;;;;;;;29.88;10.35;;;;;;;1.94;100.00;96432.47;5038066;28;20103;-81
2021/12/08 06:34:13;;;;;;;25.55;10.27;;;;;;;1.89;100.00;96444.00;5044565;28;20072;-81
2021/12/08 06:36:48;;;;;;;27.67;10.32;;;;;;;1.99;100.00;96453.75;5035484;28;20118;-81
2021/12/08 06:39:20;;;;;;;22.35;9.75;;;;;;;2.02;100.00;96453.16;5036586;28;20075;-80
2021/12/08 06:41:58;;;;;;;30.05;10.63;;;;;;;2.05;100.00;96441.91;5057092;28;20056;-81
2021/12/08 06:44:41;;;;;;;25.25;10.05;;;;;;;2.03;100.00;96434.19;5045323;28;20053;-81
2021/12/08 06:47:26;;;;;;;21.75;9.60;;;;;;;2.10;100.00;96423.94;5023814;28;20133;-83
2021/12/08 06:49:59;;;;;;;21.75;10.43;;;;;;;2.03;100.00;96430.72;5034397;28;20059;-82
2021/12/08 06:52:31;;;;;;;22.40;10.15;;;;;;;2.07;100.00;96431.72;5036580;28;20053;-81
2021/12/08 06:55:12;;;;;;;19.77;8.17;;;;;;;2.16;100.00;96446.00;5028282;28;20059;-83
2021/12/08 06:58:24;;;;;;;26.98;10.55;;;;;;;2.28;100.00;96451.69;5048624;28;20029;-83
2021/12/08 07:01:29;;;;;;;24.50;11.13;;;;;;;2.18;100.00;96425.16;5031180;28;20224;-82
2021/12/08 07:07:02;;;;;;;24.08;10.20;;;;;;;2.17;100.00;96436.94;5033015;28;20494;-81
2021/12/08 07:09:34;;;;;;;24.33;10.95;;;;;;;2.27;100.00;96461.56;5027911;28;20049;-81
2021/12/08 07:12:11;;;;;;;;;;;;;;;2.25;100.00;96462.94;5020530;28;20053;-81
2021/12/08 07:14:40;;;;;;;23.33;10.23;;;;;;;2.34;100.00;96467.34;5028165;28;19921;-82
2021/12/08 07:17:14;;;;;;;26.17;10.57;;;;;;;2.27;100.00;96468.81;5036045;28;20177;-83
2021/12/08 07:19:51;;;;;;;25.25;10.40;;;;;;;2.32;100.00;96461.50;5017199;28;20049;-82
2021/12/08 07:22:27;;;;;;;24.88;10.07;;;;;;;2.31;100.00;96453.78;5017115;28;20072;-82
2021/12/08 07:24:56;;;;;;;22.02;9.77;;;;;;;2.40;100.00;96460.06;5033423;28;20057;-82
2021/12/08 07:27:27;;;;;;;24.38;11.10;;;;;;;2.42;100.00;96460.56;5034828;28;20057;-81
2021/12/08 07:29:57;;;;;;;25.98;10.85;;;;;;;2.35;100.00;96449.44;5031040;28;20140;-82
2021/12/08 07:32:29;;;;;;;26.30;11.18;;;;;;;2.28;100.00;96463.16;5034470;28;20758;-78
2021/12/08 07:34:58;;;;;;;26.73;11.23;;;;;;;2.36;100.00;96469.72;5018854;28;20192;-78
2021/12/08 07:37:30;;;;;;;22.65;10.55;;;;;;;2.34;100.00;96463.88;5037505;28;20107;-79
2021/12/08 07:40:04;;;;;;;23.52;9.82;;;;;;;2.36;100.00;96473.19;5036185;28;20489;-78
2021/12/08 07:42:35;;;;;;;23.85;10.10;;;;;;;2.35;100.00;96466.25;5036013;28;20063;-82
2021/12/08 07:45:08;;;;;;;20.77;10.32;;;;;;;2.37;100.00;96456.09;5019163;28;20053;-81
2021/12/08 07:47:46;;;;;;;27.50;11.57;;;;;;;2.38;100.00;96447.00;5020903;28;20061;-78
2021/12/08 07:50:28;;;;;;;26.80;11.80;;;;;;;2.39;100.00;96440.56;5039205;28;20049;-82
2021/12/08 07:52:57;;;;;;;22.75;10.70;;;;;;;2.42;100.00;96444.53;5036066;28;20627;-80
2021/12/08 07:55:29;;;;;;;25.95;11.23;;;;;;;2.38;100.00;96436.31;5038983;28;20630;-81
2021/12/08 07:57:57;;;;;;;26.25;11.18;;;;;;;2.39;100.00;96429.91;5037303;28;20136;-82
2021/12/08 08:00:29;;;;;;;26.13;10.93;;;;;;;2.42;100.00;96439.19;5039033;28;20107;-82
2021/12/08 08:02:56;;;;;;;26.52;10.70;;;;;;;2.39;100.00;96429.09;5022290;28;20084;-81
2021/12/08 08:05:28;;;;;;;25.67;10.82;;;;;;;2.40;100.00;96431.47;5040813;28;20110;-82
2021/12/08 08:07:58;;;;;;;24.23;11.07;;;;;;;2.41;100.00;96432.25;5039730;28;20080;-80
2021/12/08 08:10:28;;;;;;;24.05;11.45;;;;;;;2.50;100.00;96423.28;5026020;28;20045;-80
2021/12/08 08:13:01;;;;;;;24.77;11.77;;;;;;;2.53;100.00;96436.06;5029246;28;20057;-81
2021/12/08 08:15:36;;;;;;;27.92;11.98;;;;;;;2.62;100.00;96441.53;5040144;28;20050;-81
2021/12/08 08:18:08;;;;;;;27.25;13.45;;;;;;;2.59;100.00;96431.44;5043370;28;20084;-81
2021/12/08 08:20:42;;;;;;;25.20;11.82;;;;;;;2.63;100.00;96434.31;5039654;28;20119;-82
2021/12/08 08:23:09;;;;;;;35.13;15.67;;;;;;;2.48;100.00;96425.47;5038928;28;20050;-81
2021/12/08 08:25:42;;;;;;;28.85;13.10;;;;;;;2.67;100.00;96416.59;5020583;28;20057;-82
2021/12/08 08:28:10;;;;;;;27.80;12.85;;;;;;;2.53;100.00;96414.69;5022382;28;20068;-82
2021/12/08 08:30:41;;;;;;;26.73;12.25;;;;;;;2.55;100.00;96418.97;5029353;28;20075;-82
2021/12/08 08:33:13;;;;;;;28.40;12.90;;;;;;;2.63;100.00;96421.75;5042155;28;20049;-82
2021/12/08 08:35:43;;;;;;;24.70;11.32;;;;;;;2.59;100.00;96415.41;5039470;28;20053;-82
2021/12/08 08:38:21;;;;;;;26.85;11.60;;;;;;;2.67;100.00;96424.63;5040576;28;20493;-82
2021/12/08 08:40:55;;;;;;;25.67;11.70;;;;;;;2.66;100.00;96413.13;5031416;28;20057;-82
2021/12/08 08:43:23;;;;;;;25.23;11.82;;;;;;;2.88;100.00;96415.16;5024938;28;20814;-82
2021/12/08 08:45:58;;;;;;;24.55;11.40;;;;;;;2.93;100.00;96401.69;5037696;28;20045;-82
2021/12/08 08:48:33;;;;;;;23.80;11.00;;;;;;;2.99;100.00;96413.88;5022229;28;20053;-82
2021/12/08 08:51:22;;;;;;;23.95;11.35;;;;;;;3.17;100.00;96406.84;5040843;28;20061;-82
2021/12/08 08:54:09;;;;;;;27.23;11.55;;;;;;;3.55;100.00;96408.22;5046587;28;20056;-81
2021/12/08 08:56:55;;;;;;;25.45;11.48;;;;;;;3.72;100.00;96416.41;5061442;28;20059;-81
2021/12/08 08:59:43;;;;;;;27.13;11.52;;;;;;;3.82;100.00;96420.75;5068973;28;20047;-83
2021/12/08 09:02:38;;;;;;;26.33;11.82;;;;;;;3.85;100.00;96410.22;5045793;28;20113;-82
2021/12/08 09:05:38;;;;;;;20.00;10.48;;;;;;;3.71;100.00;96417.50;5051354;28;20045;-82
2021/12/08 09:08:23;;;;;;;21.15;10.38;;;;;;;3.55;100.00;96403.66;5034147;28;20057;-82
2021/12/08 09:11:15;;;;;;;22.73;10.25;;;;;;;3.42;100.00;96404.47;5036781;28;20267;-82
2021/12/08 09:13:47;;;;;;;22.38;10.13;;;;;;;3.51;100.00;96413.34;5017531;28;20096;-82
2021/12/08 09:16:21;;;;;;;25.13;10.70;;;;;;;3.45;100.00;96413.78;5020287;28;20061;-81
2021/12/08 09:19:02;;;;;;;23.60;10.43;;;;;;;3.54;100.00;96412.75;5044216;28;20114;-82
2021/12/08 09:21:47;;;;;;;23.77;11.45;;;;;;;3.46;100.00;96408.13;5027305;28;20053;-82
2021/12/08 09:24:38;;;;;;;24.27;10.93;;;;;;;3.71;100.00;96410.28;5033816;28;20070;-83
2021/12/08 09:27:27;;;;;;;22.35;10.50;;;;;;;3.87;100.00;96397.34;5029356;28;20041;-82
2021/12/08 09:30:12;;;;;;;28.42;10.63;;;;;;;3.91;100.00;96400.19;5044061;28;20057;-81
2021/12/08 09:33:00;;;;;;;28.65;11.57;;;;;;;3.98;100.00;96387.97;5028387;28;20051;-79
2021/12/08 09:35:49;;;;;;;23.83;10.98;;;;;;;4.01;100.00;96387.38;5041487;28;20049;-80
2021/12/08 09:38:24;;;;;;;22.65;10.68;;;;;;;3.65;100.00;96387.38;5040083;28;20049;-81
2021/12/08 09:41:01;;;;;;;22.35;10.80;;;;;;;3.61;100.00;96385.63;5040543;28;20064;-81
2021/12/08 09:43:34;;;;;;;19.83;10.60;;;;;;;3.63;100.00;96386.91;5040118;28;20064;-82
2021/12/08 09:46:10;;;;;;;21.13;10.98;;;;;;;3.59;100.00;96391.25;5041769;28;20061;-82
2021/12/08 09:48:42;;;;;;;20.08;10.43;;;;;;;3.63;100.00;96402.16;5041667;28;20049;-80
2021/12/08 09:51:18;;;;;;;19.95;10.38;;;;;;;3.64;100.00;96407.19;5041049;28;20061;-80
2021/12/08 09:53:58;;;;;;;14.70;7.82;;;;;;;3.57;100.00;96393.44;5039430;28;20054;-80
2021/12/08 09:56:40;;;;;;;22.65;11.02;;;;;;;3.73;100.00;96375.97;5037602;28;20049;-80
2021/12/08 09:59:22;;;;;;;23.35;9.93;;;;;;;3.73;100.00;96378.66;5023463;28;20056;-80
2021/12/08 10:01:55;;;;;;;20.95;8.75;;;;;;;3.79;100.00;96388.13;5020444;28;20045;-81
2021/12/08 10:04:22;;;;;;;23.42;9.43;;;;;;;3.65;100.00;96382.03;5031967;28;20133;-80
2021/12/08 10:06:54;;;;;;;18.90;9.52;;;;;;;3.70;100.00;96367.75;5038308;28;20386;-82
2021/12/08 10:09:21;;;;;;;17.60;9.40;;;;;;;3.59;100.00;96372.53;5038899;28;20513;-82
2021/12/08 10:11:52;;;;;;;20.70;10.02;;;;;;;3.60;100.00;96376.78;5035026;28;20184;-82
2021/12/08 10:14:20;;;;;;;21.30;10.43;;;;;;;3.55;100.00;96371.56;5037326;28;20391;-81
2021/12/08 10:16:50;;;;;;;23.63;11.25;;;;;;;3.67;100.00;96382.50;5042718;28;20599;-80
2021/12/08 10:19:17;;;;;;;24.20;11.32;;;;;;;3.45;100.00;96379.00;5044179;28;20232;-80
2021/12/08 10:21:46;;;;;;;21.98;11.63;;;;;;;3.42;100.00;96363.53;5035954;28;20088;-81
2021/12/08 10:24:26;;;;;;;21.85;10.90;;;;;;;3.31;100.00;96357.63;5033231;28;20115;-82
2021/12/08 10:27:02;;;;;;;21.52;11.25;;;;;;;3.51;100.00;96353.75;5032737;28;20050;-81
2021/12/08 10:29:30;;;;;;;21.02;11.25;;;;;;;3.54;100.00;96353.09;5034187;28;20103;-80
2021/12/08 10:32:00;;;;;;;19.90;10.70;;;;;;;3.52;100.00;96355.31;5036148;28;20042;-82
2021/12/08 10:34:35;;;;;;;22.42;11.38;;;;;;;3.61;100.00;96348.94;5036430;28;20049;-81
2021/12/08 10:37:05;;;;;;;22.88;11.82;;;;;;;3.38;100.00;96363.34;5037380;28;20049;-82
2021/12/08 10:39:36;;;;;;;29.15;14.40;;;;;;;3.42;100.00;96367.03;5018236;28;20095;-82
2021/12/08 10:42:08;;;;;;;33.45;14.55;;;;;;;3.40;100.00;96371.09;5034926;28;20053;-83
2021/12/08 10:47:50;;;;;;;25.15;12.32;;;;;;;3.31;100.00;96371.00;5035399;28;20082;-81
2021/12/08 10:56:08;;;;;;;22.83;12.07;;;;;;;3.60;100.00;96359.94;5013305;28;20056;-81
2021/12/08 10:58:43;;;;;;;26.73;13.20;;;;;;;3.35;100.00;96350.59;5013629;28;20422;-80
2021/12/08 11:01:24;;;;;;;27.45;12.30;;;;;;;3.30;100.00;96357.94;5012698;28;20132;-80
2021/12/08 11:04:16;;;;;;;23.17;11.63;;;;;;;3.02;100.00;96362.50;5014344;28;20054;-80
2021/12/08 11:06:42;;;;;;;23.65;12.65;;;;;;;2.75;100.00;96359.81;5015028;28;20050;-81
2021/12/08 11:09:19;;;;;;;23.00;11.80;;;;;;;2.87;100.00;96358.25;5014641;28;20096;-80
2021/12/08 11:11:48;;;;;;;24.98;13.13;;;;;;;2.64;100.00;96361.88;5031728;28;20060;-80
2021/12/08 11:14:15;;;;;;;28.63;13.38;;;;;;;2.72;100.00;96355.84;5031119;28;20081;-82
2021/12/08 11:16:44;;;;;;;29.85;15.02;;;;;;;2.88;100.00;96359.03;5048160;28;20052;-82
2021/12/08 11:19:14;;;;;;;27.55;14.05;;;;;;;2.75;100.00;96349.13;5014891;28;20140;-81
2021/12/08 11:21:47;;;;;;;27.85;14.30;;;;;;;2.68;100.00;96348.75;5037264;28;20560;-82
2021/12/08 11:24:25;;;;;;;26.40;14.15;;;;;;;2.71;100.00;96348.91;5032532;28;20781;-82
2021/12/08 11:26:52;;;;;;;37.03;18.70;;;;;;;2.42;100.00;96351.06;5043541;28;20485;-81
2021/12/08 11:29:20;;;;;;;27.27;15.32;;;;;;;2.57;100.00;96358.00;5030608;28;20268;-81
2021/12/08 11:31:48;;;;;;;29.73;15.80;;;;;;;2.49;100.00;96362.16;5022566;28;20083;-81
2021/12/08 11:34:46;;;;;;;32.88;16.02;;;;;;;2.53;100.00;96353.25;5021405;28;20053;-82
2021/12/08 11:37:32;;;;;;;29.52;15.00;;;;;;;2.49;100.00;96365.63;5038025;28;20076;-82
2021/12/08 11:40:25;;;;;;;33.00;15.68;;;;;;;2.33;100.00;96334.13;5003332;28;20140;-80
2021/12/08 11:42:52;;;;;;;37.63;16.65;;;;;;;2.40;100.00;96339.91;5020210;28;20100;-82
2021/12/08 11:45:19;;;;;;;30.83;15.70;;;;;;;2.44;100.00;96347.03;5036492;28;20096;-80
2021/12/08 11:47:46;;;;;;;30.65;15.05;;;;;;;2.63;100.00;96348.84;5032950;28;20065;-79
2021/12/08 11:50:22;;;;;;;28.65;14.30;;;;;;;2.60;100.00;96341.41;5035022;28;20068;-80
2021/12/08 11:52:55;;;;;;;31.35;15.52;;;;;;;2.60;100.00;96339.53;5020218;28;20053;-78
2021/12/08 11:55:24;;;;;;;32.95;16.35;;;;;;;2.61;100.00;96335.00;5043284;28;20057;-82
2021/12/08 11:57:57;;;;;;;31.52;15.63;;;;;;;2.71;100.00;96338.22;5040565;28;20059;-82
2021/12/08 12:00:28;;;;;;;32.22;15.05;;;;;;;2.98;100.00;96337.44;5024062;28;20781;-80
2021/12/08 12:03:05;;;;;;;31.48;15.73;;;;;;;2.99;100.00;96336.38;5035564;28;20521;-80
2021/12/08 12:05:41;;;;;;;31.08;15.40;;;;;;;3.04;100.00;96346.97;5040311;28;20132;-82
2021/12/08 12:08:09;;;;;;;;;;;;;;;2.97;100.00;96343.88;5036183;28;20033;-80
2021/12/08 12:10:39;;;;;;;31.25;15.38;;;;;;;2.97;100.00;96343.88;5042762;28;19943;-79
2021/12/08 12:13:08;;;;;;;33.80;15.68;;;;;;;2.98;100.00;96340.94;5036829;28;20049;-79
2021/12/08 12:15:37;;;;;;;30.42;15.40;;;;;;;3.02;100.00;96331.22;5022175;28;20052;-81
2021/12/08 12:18:05;;;;;;;31.20;15.50;;;;;;;3.06;100.00;96326.06;5025702;28;20053;-81
2021/12/08 12:20:39;;;;;;;34.88;16.88;;;;;;;2.95;100.00;96341.50;5026142;28;20536;-82
2021/12/08 12:23:45;;;;;;;38.45;17.65;;;;;;;2.73;100.00;96348.63;5043288;28;20098;-81
2021/12/08 12:26:43;;;;;;;38.70;18.88;;;;;;;2.85;100.00;96346.25;5034194;28;20073;-83
2021/12/08 12:29:36;;;;;;;38.35;17.85;;;;;;;2.68;100.00;96357.56;5022326;28;20058;-81
2021/12/08 12:32:17;;;;;;;40.22;18.92;;;;;;;2.70;100.00;96343.88;5037856;28;20076;-81